createdAt,value
2023-05-24T00:10:40.537Z,78.40
2023-05-24T00:21:21.434Z,78.53
2023-05-24T00:32:02.308Z,79.15
2023-05-24T00:42:42.941Z,81.76
2023-05-24T00:53:23.284Z,80.43
2023-05-24T01:04:05.574Z,80.85
2023-05-24T01:14:49.134Z,82.76
2023-05-24T01:25:50.940Z,80.77
2023-05-24T01:36:31.442Z,82.65
2023-05-24T01:47:20.718Z,80.00
2023-05-24T01:58:04.467Z,86.86
2023-05-24T02:08:44.957Z,82.20
2023-05-24T02:19:25.854Z,86.18
2023-05-24T02:30:07.589Z,87.69
2023-05-24T02:40:48.120Z,88.44
2023-05-24T02:51:28.674Z,90.06
2023-05-24T03:02:09.404Z,83.92
2023-05-24T03:12:49.872Z,85.60
2023-05-24T03:23:30.891Z,84.30
2023-05-24T03:34:11.450Z,82.43
2023-05-24T03:44:51.977Z,88.54
2023-05-24T03:55:32.673Z,82.77
2023-05-24T04:06:16.204Z,86.37
2023-05-24T04:16:59.159Z,84.82
2023-05-24T04:27:39.882Z,82.60
2023-05-24T04:38:21.972Z,84.63
2023-05-24T04:49:02.682Z,84.53
2023-05-24T04:59:43.852Z,82.43
2023-05-24T05:10:24.264Z,84.52
2023-05-24T05:21:04.754Z,86.20
2023-05-24T05:31:46.124Z,86.87
2023-05-24T05:42:26.458Z,85.73
2023-05-24T05:53:07.075Z,81.91
2023-05-24T06:03:47.792Z,82.65
2023-05-24T06:14:28.760Z,84.29
2023-05-24T06:25:09.443Z,81.62
2023-05-24T06:35:49.621Z,80.47
2023-05-24T06:46:30.714Z,78.96
2023-05-24T06:57:11.368Z,77.65
2023-05-24T07:07:52.195Z,74.80
2023-05-24T07:18:33.043Z,72.75
2023-05-24T07:29:13.373Z,73.03
2023-05-24T07:39:53.880Z,72.52
2023-05-24T07:50:36.218Z,71.59
2023-05-24T08:01:18.614Z,71.24
2023-05-24T08:11:59.178Z,71.91
2023-05-24T08:22:39.440Z,69.22
2023-05-24T08:33:19.805Z,67.81
2023-05-24T08:44:03.751Z,67.50
2023-05-24T08:54:44.891Z,67.16
2023-05-24T09:05:25.824Z,63.20
2023-05-24T09:16:06.764Z,66.73
2023-05-24T09:26:50.866Z,66.42
2023-05-24T09:37:33.062Z,64.58
2023-05-24T09:48:15.554Z,60.59
2023-05-24T09:58:57.047Z,60.65
2023-05-24T10:09:38.240Z,62.52
2023-05-24T10:20:19.187Z,61.26
2023-05-24T10:31:12.260Z,57.41
2023-05-24T10:41:56.806Z,57.26
2023-05-24T10:52:37.548Z,58.97
2023-05-24T11:03:23.536Z,57.97
2023-05-24T11:14:06.053Z,60.08
2023-05-24T11:24:47.449Z,60.45
2023-05-24T11:35:28.310Z,62.79
2023-05-24T11:46:08.902Z,60.91
2023-05-24T11:56:49.634Z,60.74
2023-05-24T12:07:30.080Z,61.81
2023-05-24T12:18:20.973Z,60.12
2023-05-24T12:29:03.697Z,57.90
2023-05-24T12:39:45.143Z,58.03
2023-05-24T12:50:26.896Z,57.36
2023-05-24T13:01:07.755Z,57.52
2023-05-24T13:11:48.709Z,59.09
2023-05-24T13:22:29.277Z,60.22
2023-05-24T13:33:09.868Z,58.62
2023-05-24T13:43:50.740Z,58.93
2023-05-24T13:54:32.232Z,59.38
2023-05-24T14:15:56.218Z,56.74
2023-05-24T14:26:36.955Z,56.10
2023-05-24T14:37:18.444Z,56.65
2023-05-24T14:48:01.014Z,57.89
2023-05-24T14:58:42.195Z,57.09
2023-05-24T15:09:22.889Z,60.40
2023-05-24T15:20:04.397Z,59.58
2023-05-24T15:30:46.861Z,56.12
2023-05-24T15:41:28.301Z,57.19
2023-05-24T15:52:10.047Z,57.36
2023-05-24T16:02:51.077Z,58.64
2023-05-24T16:13:32.395Z,58.95
2023-05-24T16:24:13.075Z,58.93
2023-05-24T16:34:56.722Z,59.72
2023-05-24T16:45:37.625Z,59.66
2023-05-24T16:56:18.277Z,57.65
2023-05-24T17:06:58.598Z,58.69
2023-05-24T17:17:39.278Z,59.27
2023-05-24T17:28:19.777Z,58.92
2023-05-24T17:39:00.324Z,58.80
2023-05-24T17:49:40.647Z,60.86
2023-05-24T18:00:21.631Z,60.46
2023-05-24T18:11:07.941Z,60.91
2023-05-24T18:21:49.003Z,61.52
2023-05-24T18:32:29.995Z,60.56
2023-05-24T18:43:10.866Z,60.25
2023-05-24T18:53:51.887Z,59.94
2023-05-24T19:04:32.709Z,61.47
2023-05-24T19:15:13.703Z,62.25
2023-05-24T19:25:54.475Z,63.20
2023-05-24T19:36:35.838Z,64.53
2023-05-24T19:47:16.762Z,63.76
2023-05-24T19:57:57.498Z,63.92
2023-05-24T20:08:38.048Z,65.49
2023-05-24T20:19:21.492Z,69.06
2023-05-24T20:30:02.586Z,66.89
2023-05-24T20:40:43.094Z,72.27
2023-05-24T20:51:24.579Z,70.35
2023-05-24T21:02:05.209Z,69.04
2023-05-24T21:12:46.682Z,70.81
2023-05-24T21:23:27.204Z,73.25
2023-05-24T21:34:07.930Z,72.10
2023-05-24T21:44:48.108Z,75.03
2023-05-24T21:55:29.437Z,75.13
2023-05-24T22:06:10.126Z,75.84
2023-05-24T22:16:50.839Z,73.69
2023-05-24T22:27:31.692Z,76.93
2023-05-24T22:38:12.690Z,77.17
2023-05-24T22:48:53.219Z,78.93
2023-05-24T22:59:33.439Z,79.17
2023-05-24T23:10:14.018Z,81.90
2023-05-24T23:20:55.996Z,80.51
2023-05-24T23:31:36.455Z,76.77
2023-05-24T23:42:17.103Z,79.74
2023-05-24T23:52:57.331Z,81.05
